Time;durP1;ratioP1;P1;durP2;ratioP2;P2;SDS_P1;SDS_P2;PMS_P1;PMS_P2;Temp;Humidity;BMP_temperature;BMP_pressure;BME280_temperature;BME280_humidity;BME280_pressure;Samples;Min_cycle;Max_cycle;Signal;HPM_P1;HPM_P2
2021/04/19 00:00:36;;;;;;;2.02;1.87;;;;;;;19.37;42.40;100665.48;;;;-51
2021/04/19 00:03:36;;;;;;;2.17;1.97;;;;;;;19.35;42.42;100659.53;;;;-52
2021/04/19 00:06:36;;;;;;;2.31;2.11;;;;;;;19.34;42.47;100659.53;;;;-47
2021/04/19 00:09:36;;;;;;;2.15;1.99;;;;;;;19.33;42.45;100655.61;;;;-54
2021/04/19 00:12:36;;;;;;;2.11;1.91;;;;;;;19.32;42.45;100656.10;;;;-54
2021/04/19 00:15:36;;;;;;;2.25;2.05;;;;;;;19.31;42.46;100655.92;;;;-53
2021/04/19 00:18:36;;;;;;;2.06;1.93;;;;;;;19.28;42.48;100647.61;;;;-50
2021/04/19 00:21:36;;;;;;;2.02;1.90;;;;;;;19.28;42.47;100645.55;;;;-51
2021/04/19 00:24:37;;;;;;;2.04;1.93;;;;;;;19.27;42.47;100649.78;;;;-47
2021/04/19 00:27:36;;;;;;;2.23;2.04;;;;;;;19.26;42.49;100651.54;;;;-48
2021/04/19 00:30:36;;;;;;;2.19;1.99;;;;;;;19.25;42.47;100655.28;;;;-50
2021/04/19 00:33:36;;;;;;;2.06;1.89;;;;;;;19.24;42.48;100656.17;;;;-51
2021/04/19 00:36:36;;;;;;;2.23;2.06;;;;;;;19.23;42.49;100658.19;;;;-51
2021/04/19 00:39:36;;;;;;;2.18;1.98;;;;;;;19.23;42.49;100660.63;;;;-51
2021/04/19 00:42:36;;;;;;;2.05;1.88;;;;;;;19.22;42.48;100665.02;;;;-50
2021/04/19 00:45:36;;;;;;;1.92;1.82;;;;;;;19.21;42.50;100664.34;;;;-51
2021/04/19 00:48:36;;;;;;;2.15;1.95;;;;;;;19.19;42.51;100661.88;;;;-51
2021/04/19 00:51:36;;;;;;;2.23;2.03;;;;;;;19.18;42.51;100657.00;;;;-51
2021/04/19 00:54:36;;;;;;;2.30;2.00;;;;;;;19.17;42.53;100651.16;;;;-51
2021/04/19 00:57:36;;;;;;;2.19;2.00;;;;;;;19.15;42.55;100644.64;;;;-50
2021/04/19 01:00:36;;;;;;;2.13;1.93;;;;;;;19.15;42.53;100642.03;;;;-50
2021/04/19 01:03:36;;;;;;;2.20;2.00;;;;;;;19.14;42.52;100646.72;;;;-54
2021/04/19 01:06:36;;;;;;;2.20;2.00;;;;;;;19.13;42.54;100647.52;;;;-54
2021/04/19 01:09:36;;;;;;;2.30;2.10;;;;;;;19.13;42.54;100644.18;;;;-50
2021/04/19 01:12:36;;;;;;;2.13;1.99;;;;;;;19.11;42.52;100641.97;;;;-51
2021/04/19 01:15:36;;;;;;;2.21;2.01;;;;;;;19.10;42.54;100641.97;;;;-50
2021/04/19 01:18:36;;;;;;;2.23;2.03;;;;;;;19.10;42.54;100643.19;;;;-47
2021/04/19 01:21:36;;;;;;;2.22;2.02;;;;;;;19.08;42.52;100642.27;;;;-47
2021/04/19 01:24:36;;;;;;;2.30;1.94;;;;;;;19.09;42.53;100642.27;;;;-47
2021/04/19 01:27:36;;;;;;;2.19;1.99;;;;;;;19.07;42.54;100640.89;;;;-48
2021/04/19 01:30:36;;;;;;;2.33;2.13;;;;;;;19.06;42.54;100640.63;;;;-50
2021/04/19 01:33:36;;;;;;;2.29;2.09;;;;;;;19.05;42.55;100634.05;;;;-50
2021/04/19 01:36:36;;;;;;;2.24;2.04;;;;;;;19.05;42.54;100632.47;;;;-48
2021/04/19 01:39:36;;;;;;;2.30;2.10;;;;;;;19.04;42.56;100635.00;;;;-48
2021/04/19 01:42:36;;;;;;;2.37;2.09;;;;;;;19.04;42.55;100634.91;;;;-48
2021/04/19 01:45:36;;;;;;;2.16;1.96;;;;;;;19.03;42.57;100633.75;;;;-53
2021/04/19 01:48:36;;;;;;;2.92;2.13;;;;;;;19.02;42.56;100631.97;;;;-53
2021/04/19 01:51:36;;;;;;;2.30;2.09;;;;;;;19.01;42.55;100634.48;;;;-51
2021/04/19 01:54:36;;;;;;;2.18;1.98;;;;;;;19.00;42.60;100633.33;;;;-53
2021/04/19 01:57:36;;;;;;;2.17;2.03;;;;;;;18.99;42.59;100633.16;;;;-53
2021/04/19 02:00:36;;;;;;;2.27;2.07;;;;;;;18.98;42.58;100634.03;;;;-51
2021/04/19 02:03:36;;;;;;;2.46;2.26;;;;;;;18.98;42.60;100629.89;;;;-50
2021/04/19 02:06:36;;;;;;;2.52;2.32;;;;;;;18.96;42.60;100632.38;;;;-51
2021/04/19 02:09:36;;;;;;;2.30;2.10;;;;;;;18.96;42.62;100637.83;;;;-51
2021/04/19 02:12:36;;;;;;;2.20;2.00;;;;;;;18.95;42.61;100634.74;;;;-50
2021/04/19 02:15:36;;;;;;;2.52;2.32;;;;;;;18.94;42.61;100633.91;;;;-50
2021/04/19 02:18:36;;;;;;;2.45;2.25;;;;;;;18.93;42.66;100630.50;;;;-51
2021/04/19 02:21:36;;;;;;;2.31;2.11;;;;;;;18.93;42.66;100635.12;;;;-51
2021/04/19 02:24:36;;;;;;;2.46;2.19;;;;;;;18.92;42.64;100633.39;;;;-51
2021/04/19 02:27:36;;;;;;;2.30;2.10;;;;;;;18.92;42.63;100629.82;;;;-53
2021/04/19 02:30:36;;;;;;;2.33;2.13;;;;;;;18.91;42.68;100631.13;;;;-54
2021/04/19 02:33:36;;;;;;;2.31;2.10;;;;;;;18.89;42.70;100629.80;;;;-53
2021/04/19 02:36:36;;;;;;;2.42;2.22;;;;;;;18.88;42.66;100628.64;;;;-54
2021/04/19 02:39:36;;;;;;;2.45;2.25;;;;;;;18.88;42.66;100632.45;;;;-53
2021/04/19 02:42:36;;;;;;;2.29;2.09;;;;;;;18.88;42.66;100632.29;;;;-55
2021/04/19 02:45:36;;;;;;;2.27;2.07;;;;;;;18.87;42.69;100632.70;;;;-53
2021/04/19 02:48:36;;;;;;;2.44;2.24;;;;;;;18.86;42.71;100629.50;;;;-48
2021/04/19 02:51:36;;;;;;;2.31;2.09;;;;;;;18.85;42.68;100622.69;;;;-48
2021/04/19 02:54:36;;;;;;;2.52;2.32;;;;;;;18.85;42.71;100626.42;;;;-50
2021/04/19 02:57:36;;;;;;;2.27;2.07;;;;;;;18.84;42.73;100621.96;;;;-51
2021/04/19 03:00:36;;;;;;;2.37;2.17;;;;;;;18.83;42.71;100625.02;;;;-53
2021/04/19 03:03:36;;;;;;;2.38;2.18;;;;;;;18.83;42.70;100622.09;;;;-51
2021/04/19 03:06:36;;;;;;;2.38;2.18;;;;;;;18.82;42.71;100624.17;;;;-51
2021/04/19 03:09:36;;;;;;;2.03;1.93;;;;;;;18.81;42.74;100622.88;;;;-50
2021/04/19 03:12:36;;;;;;;2.33;2.13;;;;;;;18.81;42.72;100616.95;;;;-50
2021/04/19 03:15:36;;;;;;;2.31;2.11;;;;;;;18.81;42.74;100613.79;;;;-51
2021/04/19 03:18:36;;;;;;;2.40;2.20;;;;;;;18.79;42.71;100614.33;;;;-51
2021/04/19 03:21:37;;;;;;;2.71;2.40;;;;;;;18.78;42.75;100612.59;;;;-51
2021/04/19 03:24:36;;;;;;;2.40;2.20;;;;;;;18.78;42.75;100614.02;;;;-51
2021/04/19 03:27:36;;;;;;;2.48;2.23;;;;;;;18.77;42.76;100611.44;;;;-53
2021/04/19 03:30:36;;;;;;;2.43;2.23;;;;;;;18.77;42.73;100609.81;;;;-53
2021/04/19 03:33:36;;;;;;;2.39;2.19;;;;;;;18.76;42.73;100612.91;;;;-51
2021/04/19 03:36:36;;;;;;;2.68;2.48;;;;;;;18.75;42.75;100608.25;;;;-51
2021/04/19 03:39:36;;;;;;;2.26;1.93;;;;;;;18.74;42.75;100608.08;;;;-51
2021/04/19 03:42:36;;;;;;;2.47;2.27;;;;;;;18.74;42.79;100608.98;;;;-51
2021/04/19 03:45:36;;;;;;;2.59;2.39;;;;;;;18.73;42.76;100605.70;;;;-51
2021/04/19 03:48:36;;;;;;;2.44;2.24;;;;;;;18.73;42.79;100603.67;;;;-51
2021/04/19 03:51:36;;;;;;;2.33;2.13;;;;;;;18.72;42.76;100606.92;;;;-51
2021/04/19 03:54:36;;;;;;;2.42;2.22;;;;;;;18.71;42.77;100605.44;;;;-51
2021/04/19 03:57:36;;;;;;;2.34;2.14;;;;;;;18.71;42.75;100606.33;;;;-50
2021/04/19 04:00:36;;;;;;;2.33;2.13;;;;;;;18.71;42.81;100606.81;;;;-51
2021/04/19 04:03:36;;;;;;;2.47;2.27;;;;;;;18.69;42.79;100607.44;;;;-51
2021/04/19 04:06:36;;;;;;;2.29;2.09;;;;;;;18.69;42.77;100606.95;;;;-51
2021/04/19 04:09:36;;;;;;;2.49;2.29;;;;;;;18.68;42.79;100608.42;;;;-50
2021/04/19 04:12:36;;;;;;;2.30;2.10;;;;;;;18.67;42.79;100600.68;;;;-51
2021/04/19 04:15:36;;;;;;;2.24;2.04;;;;;;;18.67;42.79;100601.81;;;;-51
2021/04/19 04:18:36;;;;;;;2.38;2.18;;;;;;;18.66;42.78;100600.92;;;;-51
2021/04/19 04:21:36;;;;;;;2.27;2.07;;;;;;;18.66;42.79;100598.98;;;;-50
2021/04/19 04:24:36;;;;;;;2.39;2.19;;;;;;;18.65;42.78;100600.98;;;;-51
2021/04/19 04:27:36;;;;;;;8.49;5.37;;;;;;;18.66;43.64;100604.41;;;;-51
2021/04/19 04:30:36;;;;;;;8.45;7.61;;;;;;;18.39;44.55;100607.56;;;;-51
2021/04/19 04:33:36;;;;;;;9.87;7.50;;;;;;;18.23;44.80;100602.39;;;;-57
2021/04/19 04:36:36;;;;;;;7.87;7.07;;;;;;;18.17;44.93;100606.53;;;;-57
2021/04/19 04:39:36;;;;;;;10.09;7.57;;;;;;;18.11;45.14;100606.12;;;;-58
2021/04/19 04:42:36;;;;;;;9.07;7.83;;;;;;;18.06;45.20;100611.49;;;;-55
2021/04/19 04:45:36;;;;;;;11.19;7.88;;;;;;;18.00;45.38;100610.27;;;;-56
2021/04/19 04:48:36;;;;;;;8.40;7.43;;;;;;;17.97;45.39;100613.36;;;;-56
2021/04/19 04:51:36;;;;;;;8.83;7.91;;;;;;;17.94;45.52;100614.22;;;;-56
2021/04/19 04:54:36;;;;;;;9.20;7.93;;;;;;;17.89;45.64;100616.52;;;;-59
2021/04/19 04:57:36;;;;;;;10.37;7.87;;;;;;;17.87;45.80;100617.38;;;;-54
2021/04/19 05:00:36;;;;;;;10.85;7.76;;;;;;;17.91;45.81;100615.00;;;;-53
2021/04/19 05:03:36;;;;;;;9.30;6.97;;;;;;;17.99;45.40;100613.23;;;;-57
2021/04/19 05:06:36;;;;;;;8.71;6.42;;;;;;;18.05;45.15;100613.00;;;;-57
2021/04/19 05:09:36;;;;;;;8.22;6.29;;;;;;;18.11;44.93;100615.69;;;;-56
2021/04/19 05:12:36;;;;;;;7.55;6.01;;;;;;;18.14;44.74;100615.83;;;;-55
2021/04/19 05:15:36;;;;;;;6.17;5.57;;;;;;;18.18;44.66;100616.98;;;;-53
2021/04/19 05:18:36;;;;;;;8.16;5.55;;;;;;;18.21;44.52;100615.27;;;;-53
2021/04/19 05:21:36;;;;;;;5.91;5.09;;;;;;;18.25;44.46;100612.65;;;;-53
2021/04/19 05:24:36;;;;;;;5.67;4.93;;;;;;;18.28;44.39;100612.10;;;;-58
2021/04/19 05:27:36;;;;;;;5.25;4.56;;;;;;;18.33;44.23;100615.59;;;;-53
2021/04/19 05:30:36;;;;;;;4.99;4.43;;;;;;;18.37;44.19;100613.63;;;;-57
2021/04/19 05:33:36;;;;;;;5.31;4.32;;;;;;;18.42;44.06;100619.36;;;;-57
2021/04/19 05:36:36;;;;;;;6.38;4.25;;;;;;;18.46;44.01;100624.77;;;;-57
2021/04/19 05:39:36;;;;;;;4.93;3.77;;;;;;;18.50;44.00;100630.67;;;;-57
2021/04/19 05:42:36;;;;;;;4.32;3.92;;;;;;;18.54;43.94;100625.12;;;;-57
2021/04/19 05:45:36;;;;;;;4.24;3.73;;;;;;;18.59;43.87;100629.23;;;;-55
2021/04/19 05:48:36;;;;;;;4.37;3.45;;;;;;;18.63;43.87;100625.38;;;;-53
2021/04/19 05:51:36;;;;;;;4.10;3.47;;;;;;;18.68;43.80;100629.93;;;;-55
2021/04/19 05:54:36;;;;;;;3.89;3.47;;;;;;;18.72;43.82;100630.30;;;;-54
2021/04/19 05:57:36;;;;;;;3.54;3.22;;;;;;;18.76;43.78;100637.58;;;;-54
2021/04/19 06:00:36;;;;;;;3.83;3.31;;;;;;;18.79;43.67;100641.53;;;;-55
2021/04/19 06:03:36;;;;;;;3.58;3.18;;;;;;;18.83;43.70;100643.20;;;;-54
2021/04/19 06:06:36;;;;;;;3.50;3.20;;;;;;;18.85;43.68;100640.06;;;;-58
2021/04/19 06:09:36;;;;;;;3.53;3.21;;;;;;;18.87;43.64;100641.63;;;;-60
2021/04/19 06:12:36;;;;;;;3.60;3.30;;;;;;;18.91;43.62;100645.91;;;;-59
2021/04/19 06:15:36;;;;;;;3.79;3.36;;;;;;;18.92;43.54;100645.17;;;;-58
2021/04/19 06:18:36;;;;;;;3.19;2.89;;;;;;;18.94;43.56;100643.41;;;;-53
2021/04/19 06:21:36;;;;;;;3.55;3.06;;;;;;;18.94;43.54;100640.16;;;;-53
2021/04/19 06:24:36;;;;;;;3.43;3.00;;;;;;;18.96;43.48;100640.75;;;;-53
2021/04/19 06:27:36;;;;;;;3.33;3.03;;;;;;;18.98;43.45;100640.77;;;;-53
2021/04/19 06:30:41;;;;;;;3.26;2.96;;;;;;;18.99;43.47;100643.23;;;;-60
2021/04/19 06:33:36;;;;;;;3.56;3.23;;;;;;;19.01;43.41;100648.45;;;;-60
2021/04/19 06:36:36;;;;;;;3.41;3.11;;;;;;;19.01;43.39;100647.48;;;;-58
2021/04/19 06:39:36;;;;;;;3.28;2.98;;;;;;;19.02;43.40;100650.24;;;;-58
2021/04/19 06:42:36;;;;;;;3.31;3.01;;;;;;;19.03;43.38;100649.34;;;;-53
2021/04/19 06:45:36;;;;;;;3.13;2.83;;;;;;;19.03;43.37;100651.33;;;;-52
2021/04/19 06:48:36;;;;;;;3.15;2.90;;;;;;;19.04;43.36;100653.52;;;;-53
2021/04/19 06:51:36;;;;;;;3.23;2.93;;;;;;;19.05;43.31;100654.56;;;;-53
2021/04/19 06:54:36;;;;;;;3.52;3.18;;;;;;;19.05;43.31;100656.76;;;;-54
2021/04/19 06:57:36;;;;;;;3.24;2.93;;;;;;;19.05;43.31;100658.88;;;;-58
2021/04/19 07:00:37;;;;;;;3.11;2.81;;;;;;;19.06;43.29;100657.84;;;;-53
2021/04/19 07:03:39;;;;;;;3.28;2.95;;;;;;;19.05;43.28;100661.06;;;;-55
2021/04/19 07:06:36;;;;;;;2.83;2.60;;;;;;;19.05;43.27;100656.47;;;;-58
2021/04/19 07:09:36;;;;;;;3.29;2.94;;;;;;;19.06;43.22;100661.58;;;;-58
2021/04/19 07:12:36;;;;;;;4.40;3.16;;;;;;;19.05;43.23;100656.11;;;;-54
2021/04/19 07:15:36;;;;;;;3.13;2.88;;;;;;;19.06;43.20;100657.44;;;;-55
2021/04/19 07:18:36;;;;;;;3.31;2.86;;;;;;;19.06;43.17;100661.42;;;;-55
2021/04/19 07:21:36;;;;;;;5.03;2.63;;;;;;;19.06;43.22;100663.77;;;;-58
2021/04/19 07:24:36;;;;;;;3.03;2.71;;;;;;;19.08;43.31;100662.82;;;;-54
2021/04/19 07:27:36;;;;;;;3.01;2.71;;;;;;;19.10;43.55;100661.95;;;;-59
2021/04/19 07:30:36;;;;;;;3.20;2.78;;;;;;;19.14;43.70;100663.38;;;;-58
2021/04/19 07:33:36;;;;;;;3.03;2.63;;;;;;;19.17;43.48;100659.17;;;;-57
2021/04/19 07:36:36;;;;;;;3.51;2.91;;;;;;;19.21;43.78;100659.05;;;;-55
2021/04/19 07:39:36;;;;;;;3.39;2.75;;;;;;;19.24;43.62;100657.56;;;;-55
2021/04/19 07:42:38;;;;;;;3.39;2.65;;;;;;;19.26;43.38;100658.85;;;;-55
2021/04/19 07:45:36;;;;;;;3.03;2.79;;;;;;;19.28;43.31;100650.37;;;;-55
2021/04/19 07:48:37;;;;;;;2.90;2.65;;;;;;;19.30;43.20;100644.78;;;;-55
2021/04/19 07:51:36;;;;;;;3.01;2.61;;;;;;;19.33;43.21;100637.33;;;;-54
2021/04/19 07:54:36;;;;;;;3.01;2.76;;;;;;;19.36;43.19;100638.97;;;;-59
2021/04/19 07:57:36;;;;;;;3.21;2.80;;;;;;;19.38;43.08;100641.05;;;;-55
2021/04/19 08:00:36;;;;;;;3.30;2.70;;;;;;;19.44;43.48;100641.48;;;;-60
2021/04/19 08:03:36;;;;;;;3.90;2.63;;;;;;;19.47;43.26;100643.48;;;;-53
2021/04/19 08:06:36;;;;;;;5.20;2.84;;;;;;;19.53;43.66;100645.54;;;;-52
2021/04/19 08:09:36;;;;;;;3.09;2.46;;;;;;;19.57;43.84;100646.87;;;;-50
2021/04/19 08:12:36;;;;;;;3.34;2.76;;;;;;;19.62;44.06;100649.87;;;;-57
2021/04/19 08:15:36;;;;;;;4.49;2.70;;;;;;;19.68;44.09;100648.13;;;;-53
2021/04/19 08:18:36;;;;;;;3.31;2.74;;;;;;;19.72;44.23;100651.20;;;;-51
2021/04/19 08:21:36;;;;;;;3.19;2.89;;;;;;;19.77;44.22;100651.23;;;;-61
2021/04/19 08:24:36;;;;;;;3.26;2.61;;;;;;;19.79;43.99;100654.67;;;;-57
2021/04/19 08:27:36;;;;;;;2.75;2.55;;;;;;;19.81;44.11;100652.90;;;;-56
2021/04/19 08:30:36;;;;;;;4.56;2.74;;;;;;;19.84;43.92;100651.06;;;;-59
2021/04/19 08:33:36;;;;;;;3.08;2.70;;;;;;;19.87;43.85;100652.79;;;;-54
2021/04/19 08:36:36;;;;;;;4.08;2.67;;;;;;;19.92;44.14;100651.27;;;;-52
2021/04/19 08:39:36;;;;;;;3.83;2.73;;;;;;;19.96;44.14;100653.01;;;;-51
2021/04/19 08:42:36;;;;;;;3.68;2.57;;;;;;;20.00;44.13;100656.12;;;;-51
2021/04/19 08:45:36;;;;;;;2.82;2.61;;;;;;;20.03;44.22;100652.34;;;;-51
2021/04/19 08:48:36;;;;;;;2.79;2.59;;;;;;;20.07;44.34;100657.50;;;;-53
2021/04/19 08:51:36;;;;;;;2.69;2.49;;;;;;;20.12;44.31;100664.84;;;;-57
2021/04/19 08:54:36;;;;;;;4.34;2.63;;;;;;;20.13;44.19;100664.30;;;;-53
2021/04/19 08:57:36;;;;;;;4.79;4.02;;;;;;;20.08;43.57;100671.08;;;;-62
2021/04/19 09:00:36;;;;;;;4.77;3.82;;;;;;;20.09;43.44;100665.81;;;;-52
2021/04/19 09:03:36;;;;;;;4.14;3.21;;;;;;;20.13;43.56;100666.66;;;;-57
2021/04/19 09:06:36;;;;;;;6.10;2.96;;;;;;;20.19;44.09;100665.04;;;;-52
2021/04/19 09:09:36;;;;;;;4.68;2.95;;;;;;;20.22;43.90;100667.27;;;;-58
2021/04/19 09:12:36;;;;;;;3.55;2.89;;;;;;;20.26;43.91;100663.64;;;;-55
2021/04/19 09:15:36;;;;;;;12.43;3.07;;;;;;;20.33;46.14;100668.97;;;;-61
2021/04/19 09:18:36;;;;;;;4.41;3.60;;;;;;;20.31;44.25;100666.59;;;;-52
2021/04/19 09:21:37;;;;;;;6.94;3.44;;;;;;;20.34;44.12;100669.55;;;;-54
2021/04/19 09:24:36;;;;;;;5.00;3.13;;;;;;;20.36;43.90;100668.51;;;;-53
2021/04/19 09:27:36;;;;;;;5.26;3.08;;;;;;;20.39;44.01;100667.53;;;;-53
2021/04/19 09:30:37;;;;;;;5.33;2.78;;;;;;;20.41;43.73;100673.33;;;;-60
2021/04/19 09:33:36;;;;;;;3.86;3.13;;;;;;;20.43;44.30;100671.06;;;;-59
2021/04/19 09:36:36;;;;;;;4.41;3.07;;;;;;;20.44;44.05;100671.66;;;;-60
2021/04/19 09:39:36;;;;;;;5.49;3.20;;;;;;;20.40;43.85;100671.39;;;;-48
2021/04/19 09:42:36;;;;;;;5.21;3.27;;;;;;;20.41;43.79;100672.52;;;;-53
2021/04/19 09:45:36;;;;;;;6.00;3.35;;;;;;;20.42;43.72;100670.26;;;;-53
2021/04/19 09:48:38;;;;;;;5.95;3.31;;;;;;;20.42;43.37;100673.48;;;;-51
2021/04/19 09:51:37;;;;;;;4.41;3.11;;;;;;;20.44;43.70;100670.19;;;;-48
2021/04/19 09:54:36;;;;;;;4.47;3.11;;;;;;;20.47;43.67;100664.25;;;;-54
2021/04/19 09:57:36;;;;;;;3.67;2.95;;;;;;;20.51;43.75;100664.60;;;;-54
2021/04/19 10:00:36;;;;;;;3.45;3.09;;;;;;;20.55;43.78;100662.42;;;;-53
2021/04/19 10:03:37;;;;;;;4.22;3.00;;;;;;;20.60;43.82;100666.53;;;;-52
2021/04/19 10:06:36;;;;;;;4.61;3.00;;;;;;;20.59;43.62;100660.52;;;;-52
2021/04/19 10:09:36;;;;;;;4.01;2.80;;;;;;;20.65;43.93;100658.00;;;;-54
2021/04/19 10:12:36;;;;;;;4.16;2.84;;;;;;;20.69;43.90;100658.34;;;;-58
2021/04/19 10:15:36;;;;;;;4.96;3.03;;;;;;;20.73;43.90;100658.94;;;;-59
2021/04/19 10:18:36;;;;;;;3.79;2.89;;;;;;;20.72;43.78;100657.39;;;;-51
2021/04/19 10:21:37;;;;;;;3.29;2.93;;;;;;;20.71;43.72;100651.46;;;;-51
2021/04/19 10:24:36;;;;;;;4.42;3.03;;;;;;;20.73;43.68;100652.50;;;;-56
2021/04/19 10:27:36;;;;;;;3.21;2.82;;;;;;;20.75;43.55;100650.02;;;;-52
2021/04/19 10:30:37;;;;;;;3.76;2.91;;;;;;;20.77;43.73;100650.91;;;;-58
2021/04/19 10:33:36;;;;;;;3.44;2.86;;;;;;;20.78;43.75;100650.26;;;;-56
2021/04/19 10:36:36;;;;;;;3.60;2.84;;;;;;;20.77;43.43;100650.52;;;;-54
2021/04/19 10:39:36;;;;;;;3.30;2.86;;;;;;;20.79;43.52;100652.94;;;;-56
2021/04/19 10:42:36;;;;;;;3.13;2.82;;;;;;;20.79;43.63;100648.54;;;;-53
2021/04/19 10:45:36;;;;;;;3.79;2.88;;;;;;;20.79;43.27;100646.91;;;;-52
2021/04/19 10:48:36;;;;;;;3.35;2.60;;;;;;;20.77;43.19;100641.69;;;;-51
2021/04/19 10:51:36;;;;;;;3.42;2.91;;;;;;;20.75;43.05;100636.70;;;;-51
2021/04/19 10:54:36;;;;;;;2.67;2.46;;;;;;;20.74;43.05;100638.75;;;;-52
2021/04/19 10:57:36;;;;;;;3.41;2.70;;;;;;;20.74;43.06;100640.46;;;;-52
2021/04/19 11:00:36;;;;;;;4.92;3.07;;;;;;;20.76;43.19;100639.83;;;;-51
2021/04/19 11:03:37;;;;;;;3.27;2.79;;;;;;;20.74;42.99;100638.27;;;;-52
2021/04/19 11:06:36;;;;;;;3.08;2.79;;;;;;;20.73;42.93;100638.77;;;;-52
2021/04/19 11:09:36;;;;;;;3.57;2.75;;;;;;;20.73;42.84;100639.66;;;;-51
2021/04/19 11:12:36;;;;;;;3.79;2.77;;;;;;;20.72;42.81;100637.77;;;;-51
2021/04/19 11:15:36;;;;;;;3.57;2.60;;;;;;;20.72;42.81;100636.96;;;;-54
2021/04/19 11:18:36;;;;;;;4.29;2.75;;;;;;;20.72;42.68;100636.31;;;;-53
2021/04/19 11:21:36;;;;;;;3.11;2.53;;;;;;;20.72;42.79;100637.20;;;;-53
2021/04/19 11:24:37;;;;;;;2.84;2.64;;;;;;;20.73;42.73;100634.02;;;;-53
2021/04/19 11:27:36;;;;;;;3.50;2.59;;;;;;;20.73;42.65;100629.23;;;;-51
2021/04/19 11:30:36;;;;;;;2.93;2.58;;;;;;;20.74;42.66;100631.42;;;;-51
2021/04/19 11:33:36;;;;;;;2.88;2.55;;;;;;;20.75;42.75;100630.14;;;;-50
2021/04/19 11:36:36;;;;;;;2.77;2.49;;;;;;;20.75;42.57;100631.42;;;;-51
2021/04/19 11:39:36;;;;;;;2.94;2.65;;;;;;;20.74;42.60;100632.41;;;;-51
2021/04/19 11:42:36;;;;;;;2.79;2.49;;;;;;;20.75;42.65;100633.97;;;;-51
2021/04/19 11:45:36;;;;;;;3.04;2.39;;;;;;;20.75;42.64;100630.77;;;;-51
2021/04/19 11:48:36;;;;;;;2.95;2.53;;;;;;;20.77;42.78;100633.87;;;;-51
2021/04/19 11:51:36;;;;;;;4.37;2.59;;;;;;;20.77;42.81;100630.06;;;;-50
2021/04/19 11:54:36;;;;;;;3.55;2.50;;;;;;;20.77;42.96;100625.64;;;;-49
2021/04/19 11:57:36;;;;;;;3.19;2.75;;;;;;;20.80;43.34;100629.81;;;;-53
2021/04/19 12:00:36;;;;;;;6.29;2.68;;;;;;;20.82;43.33;100633.66;;;;-47
2021/04/19 12:03:36;;;;;;;4.42;2.71;;;;;;;20.85;43.59;100633.24;;;;-58
2021/04/19 12:06:36;;;;;;;3.34;2.43;;;;;;;20.88;43.55;100631.40;;;;-53
2021/04/19 12:09:36;;;;;;;2.99;2.65;;;;;;;20.92;43.49;100632.89;;;;-55
2021/04/19 12:12:36;;;;;;;3.44;2.69;;;;;;;20.95;43.51;100627.83;;;;-56
2021/04/19 12:15:36;;;;;;;3.41;2.41;;;;;;;20.97;43.52;100626.04;;;;-54
2021/04/19 12:18:36;;;;;;;3.41;2.79;;;;;;;20.98;43.35;100627.36;;;;-56
2021/04/19 12:21:36;;;;;;;5.35;2.63;;;;;;;20.96;42.99;100624.91;;;;-57
2021/04/19 12:24:36;;;;;;;4.16;2.63;;;;;;;20.99;43.21;100626.38;;;;-59
2021/04/19 12:27:36;;;;;;;3.73;2.73;;;;;;;21.01;43.47;100626.22;;;;-61
2021/04/19 12:30:36;;;;;;;3.02;2.50;;;;;;;21.03;43.21;100628.02;;;;-59
2021/04/19 12:33:36;;;;;;;3.29;2.51;;;;;;;21.05;43.69;100627.45;;;;-61
2021/04/19 12:36:36;;;;;;;2.63;2.41;;;;;;;21.05;43.74;100631.69;;;;-58
2021/04/19 12:39:36;;;;;;;2.60;2.40;;;;;;;21.07;43.76;100627.78;;;;-59
2021/04/19 12:42:36;;;;;;;3.77;2.58;;;;;;;21.07;43.60;100631.13;;;;-52
2021/04/19 12:45:36;;;;;;;2.96;2.66;;;;;;;21.04;43.09;100625.99;;;;-52
2021/04/19 12:48:36;;;;;;;4.89;2.60;;;;;;;21.03;43.00;100628.17;;;;-53
2021/04/19 12:51:36;;;;;;;3.26;2.61;;;;;;;21.01;42.81;100624.42;;;;-53
2021/04/19 12:54:36;;;;;;;3.46;2.68;;;;;;;20.98;42.85;100621.98;;;;-52
2021/04/19 12:57:36;;;;;;;3.45;2.51;;;;;;;20.99;43.09;100621.64;;;;-54
2021/04/19 13:00:36;;;;;;;3.65;2.56;;;;;;;21.01;43.33;100615.05;;;;-57
2021/04/19 13:03:36;;;;;;;2.94;2.67;;;;;;;21.02;43.45;100613.98;;;;-52
2021/04/19 13:06:36;;;;;;;2.79;2.54;;;;;;;21.04;43.56;100615.45;;;;-56
2021/04/19 13:09:37;;;;;;;2.72;2.51;;;;;;;21.06;43.48;100619.70;;;;-49
2021/04/19 13:12:36;;;;;;;2.73;2.53;;;;;;;21.06;43.45;100621.92;;;;-49
2021/04/19 13:15:36;;;;;;;2.90;2.68;;;;;;;21.07;43.59;100618.98;;;;-49
2021/04/19 13:18:36;;;;;;;3.11;2.41;;;;;;;21.08;43.64;100622.63;;;;-51
2021/04/19 13:21:36;;;;;;;3.02;2.58;;;;;;;21.09;43.59;100621.44;;;;-51
2021/04/19 13:24:36;;;;;;;2.72;2.51;;;;;;;21.10;43.52;100614.33;;;;-57
2021/04/19 13:27:36;;;;;;;2.69;2.49;;;;;;;21.11;43.55;100611.17;;;;-52
2021/04/19 13:30:36;;;;;;;2.91;2.51;;;;;;;21.12;43.60;100610.42;;;;-52
2021/04/19 13:33:36;;;;;;;2.57;2.37;;;;;;;21.14;43.57;100607.08;;;;-52
2021/04/19 13:36:36;;;;;;;2.83;2.63;;;;;;;21.15;43.53;100606.86;;;;-54
2021/04/19 13:39:36;;;;;;;2.73;2.49;;;;;;;21.18;43.43;100607.01;;;;-51
2021/04/19 13:42:36;;;;;;;3.00;2.51;;;;;;;21.20;43.23;100607.27;;;;-51
2021/04/19 13:45:36;;;;;;;3.80;2.56;;;;;;;21.22;43.32;100607.43;;;;-53
2021/04/19 13:48:36;;;;;;;3.46;2.62;;;;;;;21.23;43.49;100607.93;;;;-57
2021/04/19 13:51:36;;;;;;;3.03;2.73;;;;;;;21.23;43.39;100604.64;;;;-53
2021/04/19 13:54:36;;;;;;;3.19;2.61;;;;;;;21.22;43.28;100607.10;;;;-52
2021/04/19 13:57:36;;;;;;;4.98;2.73;;;;;;;21.21;43.90;100606.46;;;;-61
2021/04/19 14:00:36;;;;;;;4.69;2.76;;;;;;;21.23;43.62;100610.37;;;;-52
2021/04/19 14:03:36;;;;;;;2.98;2.68;;;;;;;21.24;43.21;100608.98;;;;-49
2021/04/19 14:06:36;;;;;;;2.90;2.50;;;;;;;21.23;43.02;100602.77;;;;-53
2021/04/19 14:09:36;;;;;;;3.58;2.55;;;;;;;21.21;42.90;100602.72;;;;-54
2021/04/19 14:12:37;;;;;;;3.11;2.65;;;;;;;21.19;42.82;100599.77;;;;-52
2021/04/19 14:15:36;;;;;;;2.99;2.43;;;;;;;21.18;42.80;100594.22;;;;-51
2021/04/19 14:18:37;;;;;;;3.54;2.39;;;;;;;21.17;42.76;100593.17;;;;-52
2021/04/19 14:21:36;;;;;;;2.69;2.41;;;;;;;21.15;42.70;100586.16;;;;-51
2021/04/19 14:24:36;;;;;;;3.31;2.71;;;;;;;21.15;42.78;100585.66;;;;-57
2021/04/19 14:27:36;;;;;;;2.93;2.51;;;;;;;21.15;43.16;100582.25;;;;-57
2021/04/19 14:30:36;;;;;;;2.77;2.57;;;;;;;21.17;43.43;100578.42;;;;-57
2021/04/19 14:33:36;;;;;;;3.67;2.55;;;;;;;21.19;43.44;100575.17;;;;-51
2021/04/19 14:36:36;;;;;;;3.26;2.65;;;;;;;21.20;43.53;100577.11;;;;-52
2021/04/19 14:39:36;;;;;;;2.79;2.41;;;;;;;21.21;43.56;100575.08;;;;-52
2021/04/19 14:42:36;;;;;;;4.29;2.50;;;;;;;21.23;43.50;100574.34;;;;-52
2021/04/19 14:45:36;;;;;;;4.14;2.61;;;;;;;21.22;43.10;100577.28;;;;-57
2021/04/19 14:48:36;;;;;;;3.49;2.59;;;;;;;21.23;43.31;100578.73;;;;-53
2021/04/19 14:51:36;;;;;;;3.74;2.69;;;;;;;21.23;43.34;100571.39;;;;-58
2021/04/19 14:54:37;;;;;;;3.35;2.57;;;;;;;21.24;43.46;100568.07;;;;-56
2021/04/19 14:57:36;;;;;;;2.87;2.58;;;;;;;21.26;43.45;100570.34;;;;-49
2021/04/19 15:00:36;;;;;;;4.03;2.65;;;;;;;21.28;43.39;100570.84;;;;-55
2021/04/19 15:03:36;;;;;;;2.65;2.45;;;;;;;21.33;43.49;100568.71;;;;-57
2021/04/19 15:06:36;;;;;;;3.35;2.48;;;;;;;21.33;43.36;100564.39;;;;-58
2021/04/19 15:09:36;;;;;;;3.13;2.70;;;;;;;21.37;43.42;100560.64;;;;-53
2021/04/19 15:12:36;;;;;;;6.04;2.61;;;;;;;21.37;43.46;100557.66;;;;-59
2021/04/19 15:15:36;;;;;;;4.53;2.54;;;;;;;21.39;43.41;100556.66;;;;-57
2021/04/19 15:18:36;;;;;;;3.69;2.43;;;;;;;21.40;43.55;100558.05;;;;-55
2021/04/19 15:21:36;;;;;;;2.72;2.52;;;;;;;21.41;43.51;100556.08;;;;-54
2021/04/19 15:24:36;;;;;;;2.71;2.49;;;;;;;21.42;43.47;100555.37;;;;-53
2021/04/19 15:27:36;;;;;;;3.79;2.53;;;;;;;21.44;43.51;100555.39;;;;-51
2021/04/19 15:30:36;;;;;;;3.45;2.47;;;;;;;21.44;43.37;100558.33;;;;-54
2021/04/19 15:33:38;;;;;;;3.43;2.47;;;;;;;21.38;43.24;100555.68;;;;-60
2021/04/19 15:36:37;;;;;;;2.93;2.60;;;;;;;21.39;43.22;100556.16;;;;-58
2021/04/19 15:39:36;;;;;;;4.68;2.49;;;;;;;21.40;43.52;100558.30;;;;-52
2021/04/19 15:42:36;;;;;;;3.83;2.51;;;;;;;21.41;43.63;100556.16;;;;-48
2021/04/19 15:45:36;;;;;;;2.51;2.31;;;;;;;21.40;43.51;100560.66;;;;-48
2021/04/19 15:48:38;;;;;;;5.49;2.51;;;;;;;21.41;43.63;100559.34;;;;-58
2021/04/19 15:51:36;;;;;;;3.13;2.30;;;;;;;21.43;43.78;100560.27;;;;-57
2021/04/19 15:54:36;;;;;;;3.43;2.43;;;;;;;21.43;43.61;100561.41;;;;-53
2021/04/19 15:57:36;;;;;;;3.11;2.56;;;;;;;21.42;43.25;100561.08;;;;-55
2021/04/19 16:00:36;;;;;;;4.64;2.68;;;;;;;21.38;43.16;100556.42;;;;-55
2021/04/19 16:03:36;;;;;;;4.01;2.66;;;;;;;21.36;42.98;100556.17;;;;-57
2021/04/19 16:06:37;;;;;;;2.96;2.47;;;;;;;21.35;43.16;100557.70;;;;-51
2021/04/19 16:09:36;;;;;;;2.80;2.33;;;;;;;21.35;43.29;100559.77;;;;-58
2021/04/19 16:12:36;;;;;;;4.70;2.61;;;;;;;21.37;43.42;100562.44;;;;-54
2021/04/19 16:15:36;;;;;;;2.79;2.47;;;;;;;21.38;43.39;100562.94;;;;-58
2021/04/19 16:18:36;;;;;;;2.60;2.40;;;;;;;21.40;43.39;100560.33;;;;-57
2021/04/19 16:21:36;;;;;;;2.89;2.50;;;;;;;21.42;43.48;100562.73;;;;-53
2021/04/19 16:24:36;;;;;;;2.71;2.50;;;;;;;21.42;43.56;100564.36;;;;-54
2021/04/19 16:27:37;;;;;;;3.00;2.47;;;;;;;21.43;43.54;100564.75;;;;-51
2021/04/19 16:30:36;;;;;;;3.11;2.53;;;;;;;21.45;43.60;100565.33;;;;-58
2021/04/19 16:33:36;;;;;;;2.93;2.37;;;;;;;21.47;43.59;100567.28;;;;-54
2021/04/19 16:36:36;;;;;;;2.83;2.40;;;;;;;21.48;43.62;100565.59;;;;-51
2021/04/19 16:39:36;;;;;;;3.02;2.42;;;;;;;21.48;43.52;100567.13;;;;-51
2021/04/19 16:42:36;;;;;;;2.67;2.44;;;;;;;21.48;43.34;100561.66;;;;-58